Terminal Aerodrome Forecast
Issued by NWS

Current Version | Previous Version | Graphics & Text | Print | Product List | Glossary On
Versions: 1 2 3 4 5 6 7 8 9 10 11 12 13 14 15 16 17
000
FTUS41 KPBZ 031159 CCA
TAFMGW
TAF COR
KMGW 031159Z 0312/0412 05003KT P6SM SKC
     FM031300 10005KT P6SM BKN050
     FM031800 12005KT P6SM -SHRA OVC040
     FM032200 10005KT 5SM -SHRA BR OVC025
     FM040400 VRB03KT 3SM -SHRA BR OVC007=

USA.gov is the U.S. government's official web portal to all federal, state and local government web resources and services.